Commodore Clipper — C6QQ3 — position and weather

sailwx.info

Track history (hours):
 
Tides and Currents Weather Stations Pressure Air Temp Water Temp Dewpoint Dewpoint Depression Visibility Wind Speed Wind Dir Waves Ship Positions

Commodore Clipper

Operator: Condor Marine Services

Last reported at 2019-Nov-20 08:31 UTC. Time now 2019-Nov-20 09:21 UTC.
Position N 50°49' W 001°06'.

Length 130 m; draft 5.4 m.

Type: Ship. MMSI: 308094000.

Date/timePositionNaut miles runAvg speedWind from/ knotsBaromVisibWave heightAir tempDewpointWater temp
2019-Nov-20 08:31N 50°49' W 001°06'0 0.0
2019-Nov-20 07:31N 50°49' W 001°06'0 0.0
2019-Nov-20 06:30N 50°49' W 001°06'21 9.7
2019-Nov-20 04:19N 50°29' W 001°16'2111.6
2019-Nov-20 02:30N 50°10' W 001°32'5217.2
2019-Nov-19 23:29N 49°26' W 002°14'9 1.8
2019-Nov-19 18:31N 49°23' W 002°27'510.7
2019-Nov-19 18:00N 49°27' W 002°32'1 0.5
2019-Nov-19 16:31N 49°27' W 002°31'8415.2
2019-Nov-19 11:01N 50°32' W 001°08'16 8.2
2019-Nov-19 09:00N 50°49' W 001°06'0 0.0
2019-Nov-19 07:00N 50°49' W 001°06'8611.2
2019-Nov-18 23:19N 49°33' W 002°10'1619.3
2019-Nov-18 22:29N 49°18' W 002°19'11 1.7
2019-Nov-18 16:00N 49°27' W 002°30'815.5
2019-Nov-18 15:30N 49°29' W 002°19'7717.0
2019-Nov-18 11:00N 50°32' W 001°10'1711.4
2019-Nov-18 09:30N 50°49' W 001°06'0 0.0
2019-Nov-18 05:30N 50°49' W 001°06'0 0.0
2019-Nov-18 05:00N 50°49' W 001°06'0 0.0
2019-Nov-18 04:00N 50°49' W 001°06'0 0.0
2019-Nov-18 03:00N 50°49' W 001°06'0 0.0
2019-Nov-18 02:00N 50°49' W 001°06'0 0.0
2019-Nov-18 01:00N 50°49' W 001°06'0 0.0
2019-Nov-17 23:30N 50°49' W 001°06'0 0.0
2019-Nov-17 23:00N 50°49' W 001°06'0 0.0
2019-Nov-17 22:00N 50°49' W 001°06'0 0.0
2019-Nov-17 20:00N 50°49' W 001°06'6 2.4
2019-Nov-17 17:30N 50°43' W 001°04'0 0.0
2019-Nov-17 17:00N 50°43' W 001°04'6 0.6
2019-Nov-17 07:30N 50°49' W 001°06'19 6.3
2019-Nov-17 04:30N 50°31' W 001°14'90 9.0
2019-Nov-16 18:29N 49°10' W 002°18'1515.5
2019-Nov-16 17:30N 49°24' W 002°28'4 8.4
2019-Nov-16 17:00N 49°27' W 002°32'0 0.0
2019-Nov-16 16:00N 49°27' W 002°32'4 8.2
2019-Nov-16 15:30N 49°27' W 002°26'9712.1
2019-Nov-16 07:31N 50°49' W 001°06'0 0.0
2019-Nov-16 06:31N 50°49' W 001°06'9912.3
2019-Nov-15 22:31N 49°21' W 002°17'6 1.3
2019-Nov-15 18:00N 49°20' W 002°26'5 2.2
2019-Nov-15 15:31N 49°26' W 002°27'9816.4
2019-Nov-15 09:30N 50°49' W 001°06'0 0.0
2019-Nov-15 08:30N 50°49' W 001°06'0 0.2
2019-Nov-15 07:01N 50°49' W 001°06'9012.9
2019-Nov-15 00:01N 49°29' W 002°13'17 3.5
2019-Nov-14 19:10N 49°13' W 002°20'215.3
2019-Nov-14 19:00N 49°15' W 002°22'815.7
2019-Nov-14 18:31N 49°22' W 002°27'612.3
2019-Nov-14 18:00N 49°27' W 002°32'0 0.0
2019-Nov-14 17:30N 49°27' W 002°32'9113.0
2019-Nov-14 10:30N 50°39' W 001°05'9 2.4
2019-Nov-14 06:31N 50°49' W 001°06'2811.2
2019-Nov-14 03:59N 50°22' W 001°21'2814.2
2019-Nov-14 02:00N 49°59' W 001°46'3413.4
2019-Nov-13 23:30N 49°30' W 002°12'20 3.9
2019-Nov-13 18:30N 49°11' W 002°18'816.0
2019-Nov-13 18:01N 49°18' W 002°24'9 4.4
2019-Nov-13 16:00N 49°27' W 002°25'2516.9
2019-Nov-13 14:30N 49°46' W 002°01'918.0
2019-Nov-13 14:00N 49°54' W 001°55'2717.9
2019-Nov-13 12:29N 50°16' W 001°29'1717.1
2019-Nov-13 11:30N 50°30' W 001°14'1912.9
2019-Nov-13 10:00N 50°49' W 001°06'0 0.1
2019-Nov-13 09:30N 50°49' W 001°06'0 0.0
2019-Nov-13 08:30N 50°49' W 001°06'10 3.9
2019-Nov-13 06:01N 50°40' W 001°01'4615.4
2019-Nov-13 03:00N 50°02' W 001°43'713.4
2019-Nov-13 02:31N 49°57' W 001°49'713.1
2019-Nov-13 02:00N 49°51' W 001°55'2412.1
2019-Nov-12 23:59N 49°29' W 002°12'714.4
2019-Nov-12 23:30N 49°23' W 002°16'11 2.0
2019-Nov-12 18:00N 49°27' W 002°32'21 8.2
2019-Nov-12 15:29N 49°39' W 002°05'918.0
2019-Nov-12 15:00N 49°46' W 001°58'1211.9
2019-Nov-12 14:00N 49°58' W 001°54'816.3
2019-Nov-12 13:31N 50°03' W 001°45'816.6
2019-Nov-12 13:00N 50°10' W 001°36'2116.9
2019-Nov-12 11:47N 50°26' W 001°18'516.6
2019-Nov-12 11:31N 50°30' W 001°14'1912.7
2019-Nov-12 10:00N 50°49' W 001°06'0 0.0
2019-Nov-12 09:00N 50°49' W 001°06'0 0.0
2019-Nov-12 07:30N 50°49' W 001°06'12 7.8
2019-Nov-12 06:01N 50°37' W 001°05'4116.4
2019-Nov-12 03:30N 50°03' W 001°42'1414.2
2019-Nov-12 02:31N 49°52' W 001°55'1510.5
2019-Nov-12 01:06N 49°38' W 002°03'1413.0
2019-Nov-12 00:01N 49°29' W 002°20'8 3.2
2019-Nov-11 21:30N 49°27' W 002°32'3 6.4
2019-Nov-11 21:01N 49°25' W 002°29'13 2.8
2019-Nov-11 16:15N 49°12' W 002°23'1612.4
2019-Nov-11 14:59N 49°27' W 002°14'3216.1
2019-Nov-11 13:00N 49°55' W 001°53'1817.8
2019-Nov-11 12:00N 50°10' W 001°37'2617.0
2019-Nov-11 10:30N 50°31' W 001°14'1912.6
2019-Nov-11 09:00N 50°49' W 001°06'0 0.0
2019-Nov-11 06:00N 50°49' W 001°06'0 0.0
2019-Nov-11 05:30N 50°49' W 001°06'0 0.0
2019-Nov-11 03:30N 50°49' W 001°06'0 0.0
2019-Nov-11 02:30N 50°49' W 001°06'0 0.0
2019-Nov-11 02:00N 50°49' W 001°06'0 0.0
2019-Nov-11 01:00N 50°49' W 001°06'0 0.0
2019-Nov-11 00:30N 50°49' W 001°06'0 0.0
2019-Nov-10 23:30N 50°49' W 001°06'0 0.0
2019-Nov-10 22:30N 50°49' W 001°06'0 0.0
2019-Nov-10 21:00N 50°49' W 001°06'0 0.0
2019-Nov-10 18:30N 50°49' W 001°06'0 0.0
2019-Nov-10 16:00N 50°49' W 001°06'0 0.0
2019-Nov-10 09:00N 50°49' W 001°06'  
Track history (hours):
 
Tides and Currents Weather Stations Pressure Air Temp Water Temp Dewpoint Dewpoint Depression Visibility Wind Speed Wind Dir Waves Ship Positions

Commodore Clipper

Operator: Condor Marine Services

Last reported at 2019-Nov-20 08:31 UTC. Time now 2019-Nov-20 09:21 UTC.
Position N 50°49' W 001°06'.

Length 130 m; draft 5.4 m.

Type: Ship. MMSI: 308094000.

Date/timePositionNaut miles runAvg speedWind from/ knotsBaromVisibWave heightAir tempDewpointWater temp
2019-Nov-20 08:31N 50°49' W 001°06'0 0.0
2019-Nov-20 07:31N 50°49' W 001°06'0 0.0
2019-Nov-20 06:30N 50°49' W 001°06'21 9.7
2019-Nov-20 04:19N 50°29' W 001°16'2111.6
2019-Nov-20 02:30N 50°10' W 001°32'5217.2
2019-Nov-19 23:29N 49°26' W 002°14'9 1.8
2019-Nov-19 18:31N 49°23' W 002°27'510.7
2019-Nov-19 18:00N 49°27' W 002°32'1 0.5
2019-Nov-19 16:31N 49°27' W 002°31'8415.2
2019-Nov-19 11:01N 50°32' W 001°08'16 8.2
2019-Nov-19 09:00N 50°49' W 001°06'0 0.0
2019-Nov-19 07:00N 50°49' W 001°06'8611.2
2019-Nov-18 23:19N 49°33' W 002°10'1619.3
2019-Nov-18 22:29N 49°18' W 002°19'11 1.7
2019-Nov-18 16:00N 49°27' W 002°30'815.5
2019-Nov-18 15:30N 49°29' W 002°19'7717.0
2019-Nov-18 11:00N 50°32' W 001°10'1711.4
2019-Nov-18 09:30N 50°49' W 001°06'0 0.0
2019-Nov-18 05:30N 50°49' W 001°06'0 0.0
2019-Nov-18 05:00N 50°49' W 001°06'0 0.0
2019-Nov-18 04:00N 50°49' W 001°06'0 0.0
2019-Nov-18 03:00N 50°49' W 001°06'0 0.0
2019-Nov-18 02:00N 50°49' W 001°06'0 0.0
2019-Nov-18 01:00N 50°49' W 001°06'0 0.0
2019-Nov-17 23:30N 50°49' W 001°06'0 0.0
2019-Nov-17 23:00N 50°49' W 001°06'0 0.0
2019-Nov-17 22:00N 50°49' W 001°06'0 0.0
2019-Nov-17 20:00N 50°49' W 001°06'6 2.4
2019-Nov-17 17:30N 50°43' W 001°04'0 0.0
2019-Nov-17 17:00N 50°43' W 001°04'6 0.6
2019-Nov-17 07:30N 50°49' W 001°06'19 6.3
2019-Nov-17 04:30N 50°31' W 001°14'90 9.0
2019-Nov-16 18:29N 49°10' W 002°18'1515.5
2019-Nov-16 17:30N 49°24' W 002°28'4 8.4
2019-Nov-16 17:00N 49°27' W 002°32'0 0.0
2019-Nov-16 16:00N 49°27' W 002°32'4 8.2
2019-Nov-16 15:30N 49°27' W 002°26'9712.1
2019-Nov-16 07:31N 50°49' W 001°06'0 0.0
2019-Nov-16 06:31N 50°49' W 001°06'9912.3
2019-Nov-15 22:31N 49°21' W 002°17'6 1.3
2019-Nov-15 18:00N 49°20' W 002°26'5 2.2
2019-Nov-15 15:31N 49°26' W 002°27'9816.4
2019-Nov-15 09:30N 50°49' W 001°06'0 0.0
2019-Nov-15 08:30N 50°49' W 001°06'0 0.2
2019-Nov-15 07:01N 50°49' W 001°06'9012.9
2019-Nov-15 00:01N 49°29' W 002°13'17 3.5
2019-Nov-14 19:10N 49°13' W 002°20'215.3
2019-Nov-14 19:00N 49°15' W 002°22'815.7
2019-Nov-14 18:31N 49°22' W 002°27'612.3
2019-Nov-14 18:00N 49°27' W 002°32'0 0.0
2019-Nov-14 17:30N 49°27' W 002°32'9113.0
2019-Nov-14 10:30N 50°39' W 001°05'9 2.4
2019-Nov-14 06:31N 50°49' W 001°06'2811.2
2019-Nov-14 03:59N 50°22' W 001°21'2814.2
2019-Nov-14 02:00N 49°59' W 001°46'3413.4
2019-Nov-13 23:30N 49°30' W 002°12'20 3.9
2019-Nov-13 18:30N 49°11' W 002°18'816.0
2019-Nov-13 18:01N 49°18' W 002°24'9 4.4
2019-Nov-13 16:00N 49°27' W 002°25'2516.9
2019-Nov-13 14:30N 49°46' W 002°01'918.0
2019-Nov-13 14:00N 49°54' W 001°55'2717.9
2019-Nov-13 12:29N 50°16' W 001°29'1717.1
2019-Nov-13 11:30N 50°30' W 001°14'1912.9
2019-Nov-13 10:00N 50°49' W 001°06'0 0.1
2019-Nov-13 09:30N 50°49' W 001°06'0 0.0
2019-Nov-13 08:30N 50°49' W 001°06'10 3.9
2019-Nov-13 06:01N 50°40' W 001°01'4615.4
2019-Nov-13 03:00N 50°02' W 001°43'713.4
2019-Nov-13 02:31N 49°57' W 001°49'713.1
2019-Nov-13 02:00N 49°51' W 001°55'2412.1
2019-Nov-12 23:59N 49°29' W 002°12'714.4
2019-Nov-12 23:30N 49°23' W 002°16'11 2.0
2019-Nov-12 18:00N 49°27' W 002°32'21 8.2
2019-Nov-12 15:29N 49°39' W 002°05'918.0
2019-Nov-12 15:00N 49°46' W 001°58'1211.9
2019-Nov-12 14:00N 49°58' W 001°54'816.3
2019-Nov-12 13:31N 50°03' W 001°45'816.6
2019-Nov-12 13:00N 50°10' W 001°36'2116.9
2019-Nov-12 11:47N 50°26' W 001°18'516.6
2019-Nov-12 11:31N 50°30' W 001°14'1912.7
2019-Nov-12 10:00N 50°49' W 001°06'0 0.0
2019-Nov-12 09:00N 50°49' W 001°06'0 0.0
2019-Nov-12 07:30N 50°49' W 001°06'12 7.8
2019-Nov-12 06:01N 50°37' W 001°05'4116.4
2019-Nov-12 03:30N 50°03' W 001°42'1414.2
2019-Nov-12 02:31N 49°52' W 001°55'1510.5
2019-Nov-12 01:06N 49°38' W 002°03'1413.0
2019-Nov-12 00:01N 49°29' W 002°20'8 3.2
2019-Nov-11 21:30N 49°27' W 002°32'3 6.4
2019-Nov-11 21:01N 49°25' W 002°29'13 2.8
2019-Nov-11 16:15N 49°12' W 002°23'1612.4
2019-Nov-11 14:59N 49°27' W 002°14'3216.1
2019-Nov-11 13:00N 49°55' W 001°53'1817.8
2019-Nov-11 12:00N 50°10' W 001°37'2617.0
2019-Nov-11 10:30N 50°31' W 001°14'1912.6
2019-Nov-11 09:00N 50°49' W 001°06'0 0.0
2019-Nov-11 06:00N 50°49' W 001°06'0 0.0
2019-Nov-11 05:30N 50°49' W 001°06'0 0.0
2019-Nov-11 03:30N 50°49' W 001°06'0 0.0
2019-Nov-11 02:30N 50°49' W 001°06'0 0.0
2019-Nov-11 02:00N 50°49' W 001°06'0 0.0
2019-Nov-11 01:00N 50°49' W 001°06'0 0.0
2019-Nov-11 00:30N 50°49' W 001°06'0 0.0
2019-Nov-10 23:30N 50°49' W 001°06'0 0.0
2019-Nov-10 22:30N 50°49' W 001°06'0 0.0
2019-Nov-10 21:00N 50°49' W 001°06'0 0.0
2019-Nov-10 18:30N 50°49' W 001°06'0 0.0
2019-Nov-10 16:00N 50°49' W 001°06'0 0.0
2019-Nov-10 09:00N 50°49' W 001°06'  

Dump ship's entire track history